sensor_id;sensor_type;location;lat;lon;timestamp;P1;durP1;ratioP1;P2;durP2;ratioP2
57395;SDS011;43222;52.912;6.940;2023-06-14T00:01:28;8.15;;;2.63;;
57395;SDS011;43222;52.912;6.940;2023-06-14T00:03:54;6.47;;;2.65;;
57395;SDS011;43222;52.912;6.940;2023-06-14T00:06:21;10.23;;;2.30;;
57395;SDS011;43222;52.912;6.940;2023-06-14T00:08:49;7.43;;;2.60;;
57395;SDS011;43222;52.912;6.940;2023-06-14T00:11:16;9.65;;;3.20;;
57395;SDS011;43222;52.912;6.940;2023-06-14T00:13:45;8.90;;;2.50;;
57395;SDS011;43222;52.912;6.940;2023-06-14T00:16:11;9.88;;;2.75;;
57395;SDS011;43222;52.912;6.940;2023-06-14T00:18:38;7.40;;;2.80;;
57395;SDS011;43222;52.912;6.940;2023-06-14T00:21:04;7.55;;;2.63;;
57395;SDS011;43222;52.912;6.940;2023-06-14T00:23:30;9.23;;;2.80;;
57395;SDS011;43222;52.912;6.940;2023-06-14T00:25:56;8.02;;;2.60;;
57395;SDS011;43222;52.912;6.940;2023-06-14T00:28:23;7.60;;;2.45;;
57395;SDS011;43222;52.912;6.940;2023-06-14T00:30:49;6.93;;;2.55;;
57395;SDS011;43222;52.912;6.940;2023-06-14T00:33:15;5.80;;;2.78;;
57395;SDS011;43222;52.912;6.940;2023-06-14T00:35:41;7.60;;;2.75;;
57395;SDS011;43222;52.912;6.940;2023-06-14T00:38:07;8.70;;;2.78;;
57395;SDS011;43222;52.912;6.940;2023-06-14T00:40:33;9.40;;;2.97;;
57395;SDS011;43222;52.912;6.940;2023-06-14T00:43:00;9.88;;;2.90;;
57395;SDS011;43222;52.912;6.940;2023-06-14T00:45:26;7.25;;;3.00;;
57395;SDS011;43222;52.912;6.940;2023-06-14T00:47:52;7.50;;;3.33;;
57395;SDS011;43222;52.912;6.940;2023-06-14T00:50:20;9.00;;;3.10;;
57395;SDS011;43222;52.912;6.940;2023-06-14T00:52:48;11.85;;;3.10;;
57395;SDS011;43222;52.912;6.940;2023-06-14T00:55:14;8.32;;;3.22;;
57395;SDS011;43222;52.912;6.940;2023-06-14T00:57:40;9.18;;;3.13;;
57395;SDS011;43222;52.912;6.940;2023-06-14T01:00:07;9.10;;;3.20;;
57395;SDS011;43222;52.912;6.940;2023-06-14T01:02:39;7.55;;;2.75;;
57395;SDS011;43222;52.912;6.940;2023-06-14T01:05:05;6.68;;;2.95;;
57395;SDS011;43222;52.912;6.940;2023-06-14T01:07:45;9.10;;;3.65;;
57395;SDS011;43222;52.912;6.940;2023-06-14T01:15:17;9.75;;;3.00;;
57395;SDS011;43222;52.912;6.940;2023-06-14T01:17:44;6.88;;;2.85;;
57395;SDS011;43222;52.912;6.940;2023-06-14T01:20:11;8.43;;;2.72;;
57395;SDS011;43222;52.912;6.940;2023-06-14T01:22:52;10.88;;;3.08;;
57395;SDS011;43222;52.912;6.940;2023-06-14T01:25:22;9.82;;;2.78;;
57395;SDS011;43222;52.912;6.940;2023-06-14T01:27:52;12.70;;;2.80;;
57395;SDS011;43222;52.912;6.940;2023-06-14T01:30:20;6.57;;;2.65;;
57395;SDS011;43222;52.912;6.940;2023-06-14T01:32:46;8.20;;;2.88;;
57395;SDS011;43222;52.912;6.940;2023-06-14T01:35:13;9.35;;;2.70;;
57395;SDS011;43222;52.912;6.940;2023-06-14T01:37:39;6.80;;;2.80;;
57395;SDS011;43222;52.912;6.940;2023-06-14T01:40:06;7.95;;;2.60;;
57395;SDS011;43222;52.912;6.940;2023-06-14T01:42:36;6.75;;;2.45;;
57395;SDS011;43222;52.912;6.940;2023-06-14T01:45:03;8.00;;;2.72;;
57395;SDS011;43222;52.912;6.940;2023-06-14T01:47:30;7.47;;;3.13;;
57395;SDS011;43222;52.912;6.940;2023-06-14T01:49:57;7.75;;;2.60;;
57395;SDS011;43222;52.912;6.940;2023-06-14T01:52:23;8.82;;;2.80;;
57395;SDS011;43222;52.912;6.940;2023-06-14T01:54:49;7.80;;;2.40;;
57395;SDS011;43222;52.912;6.940;2023-06-14T01:57:16;8.75;;;2.85;;
57395;SDS011;43222;52.912;6.940;2023-06-14T01:59:42;7.85;;;2.60;;
57395;SDS011;43222;52.912;6.940;2023-06-14T02:02:13;9.48;;;3.08;;
57395;SDS011;43222;52.912;6.940;2023-06-14T02:04:39;9.80;;;2.58;;
57395;SDS011;43222;52.912;6.940;2023-06-14T02:07:05;8.45;;;2.70;;
57395;SDS011;43222;52.912;6.940;2023-06-14T02:09:31;5.95;;;2.50;;
57395;SDS011;43222;52.912;6.940;2023-06-14T02:11:57;6.03;;;2.47;;
57395;SDS011;43222;52.912;6.940;2023-06-14T02:14:23;7.13;;;2.60;;
57395;SDS011;43222;52.912;6.940;2023-06-14T02:16:49;7.13;;;2.55;;
57395;SDS011;43222;52.912;6.940;2023-06-14T02:19:16;6.55;;;2.60;;
57395;SDS011;43222;52.912;6.940;2023-06-14T02:21:43;8.57;;;2.78;;
57395;SDS011;43222;52.912;6.940;2023-06-14T02:24:09;6.45;;;3.00;;
57395;SDS011;43222;52.912;6.940;2023-06-14T02:26:35;6.70;;;3.13;;
57395;SDS011;43222;52.912;6.940;2023-06-14T02:29:06;7.40;;;2.95;;
57395;SDS011;43222;52.912;6.940;2023-06-14T02:31:37;9.73;;;2.97;;
57395;SDS011;43222;52.912;6.940;2023-06-14T02:34:04;7.88;;;2.83;;
57395;SDS011;43222;52.912;6.940;2023-06-14T02:36:30;6.05;;;3.13;;
57395;SDS011;43222;52.912;6.940;2023-06-14T02:38:56;7.82;;;2.90;;
57395;SDS011;43222;52.912;6.940;2023-06-14T02:41:26;10.32;;;3.08;;
57395;SDS011;43222;52.912;6.940;2023-06-14T02:43:52;7.75;;;3.00;;
57395;SDS011;43222;52.912;6.940;2023-06-14T02:46:18;8.43;;;3.00;;
57395;SDS011;43222;52.912;6.940;2023-06-14T02:48:44;7.90;;;3.00;;
57395;SDS011;43222;52.912;6.940;2023-06-14T02:51:10;7.68;;;2.80;;
57395;SDS011;43222;52.912;6.940;2023-06-14T02:53:38;6.18;;;2.97;;
57395;SDS011;43222;52.912;6.940;2023-06-14T02:56:05;8.77;;;2.85;;
57395;SDS011;43222;52.912;6.940;2023-06-14T02:58:31;8.82;;;3.22;;
57395;SDS011;43222;52.912;6.940;2023-06-14T03:00:58;9.00;;;3.00;;
57395;SDS011;43222;52.912;6.940;2023-06-14T03:03:28;7.60;;;3.07;;
57395;SDS011;43222;52.912;6.940;2023-06-14T03:05:54;7.32;;;3.08;;
57395;SDS011;43222;52.912;6.940;2023-06-14T03:08:21;9.30;;;3.00;;
57395;SDS011;43222;52.912;6.940;2023-06-14T03:10:52;5.43;;;2.60;;
57395;SDS011;43222;52.912;6.940;2023-06-14T03:13:18;9.60;;;3.15;;
57395;SDS011;43222;52.912;6.940;2023-06-14T03:15:48;9.00;;;3.33;;
57395;SDS011;43222;52.912;6.940;2023-06-14T03:18:17;7.30;;;2.97;;
57395;SDS011;43222;52.912;6.940;2023-06-14T03:20:44;8.82;;;3.03;;
57395;SDS011;43222;52.912;6.940;2023-06-14T03:23:13;9.30;;;3.17;;
57395;SDS011;43222;52.912;6.940;2023-06-14T03:25:39;8.05;;;3.55;;
57395;SDS011;43222;52.912;6.940;2023-06-14T03:28:07;7.65;;;3.17;;
57395;SDS011;43222;52.912;6.940;2023-06-14T03:30:33;8.40;;;3.15;;
57395;SDS011;43222;52.912;6.940;2023-06-14T03:32:59;9.35;;;3.22;;
57395;SDS011;43222;52.912;6.940;2023-06-14T03:35:29;7.55;;;3.17;;
57395;SDS011;43222;52.912;6.940;2023-06-14T03:37:56;8.57;;;3.00;;
57395;SDS011;43222;52.912;6.940;2023-06-14T03:40:22;8.05;;;3.30;;
57395;SDS011;43222;52.912;6.940;2023-06-14T03:42:53;8.30;;;3.50;;
57395;SDS011;43222;52.912;6.940;2023-06-14T03:45:19;8.82;;;2.90;;
57395;SDS011;43222;52.912;6.940;2023-06-14T03:47:45;7.45;;;3.03;;
57395;SDS011;43222;52.912;6.940;2023-06-14T03:50:11;8.55;;;3.40;;
57395;SDS011;43222;52.912;6.940;2023-06-14T03:52:38;7.22;;;3.40;;
57395;SDS011;43222;52.912;6.940;2023-06-14T03:55:04;9.63;;;3.58;;
57395;SDS011;43222;52.912;6.940;2023-06-14T03:57:30;8.70;;;3.42;;
57395;SDS011;43222;52.912;6.940;2023-06-14T03:59:57;7.88;;;3.50;;
57395;SDS011;43222;52.912;6.940;2023-06-14T04:02:23;9.88;;;3.33;;
57395;SDS011;43222;52.912;6.940;2023-06-14T04:04:49;8.65;;;3.45;;
57395;SDS011;43222;52.912;6.940;2023-06-14T04:07:18;10.13;;;3.95;;
57395;SDS011;43222;52.912;6.940;2023-06-14T04:09:45;6.90;;;3.08;;
57395;SDS011;43222;52.912;6.940;2023-06-14T04:12:11;6.15;;;3.20;;
57395;SDS011;43222;52.912;6.940;2023-06-14T04:14:38;9.55;;;3.30;;
57395;SDS011;43222;52.912;6.940;2023-06-14T04:17:04;9.50;;;3.80;;
57395;SDS011;43222;52.912;6.940;2023-06-14T04:19:30;10.00;;;3.58;;
57395;SDS011;43222;52.912;6.940;2023-06-14T04:21:57;8.43;;;3.28;;
57395;SDS011;43222;52.912;6.940;2023-06-14T04:24:26;7.78;;;2.95;;
57395;SDS011;43222;52.912;6.940;2023-06-14T04:26:58;9.25;;;3.65;;
57395;SDS011;43222;52.912;6.940;2023-06-14T04:29:24;10.73;;;3.22;;
57395;SDS011;43222;52.912;6.940;2023-06-14T04:31:53;8.15;;;3.33;;
57395;SDS011;43222;52.912;6.940;2023-06-14T04:34:23;8.43;;;3.20;;
57395;SDS011;43222;52.912;6.940;2023-06-14T04:36:57;14.05;;;4.28;;
57395;SDS011;43222;52.912;6.940;2023-06-14T04:39:24;7.47;;;3.20;;
57395;SDS011;43222;52.912;6.940;2023-06-14T04:41:51;8.02;;;3.30;;
57395;SDS011;43222;52.912;6.940;2023-06-14T04:44:22;8.18;;;3.58;;
57395;SDS011;43222;52.912;6.940;2023-06-14T04:46:54;9.65;;;3.58;;
57395;SDS011;43222;52.912;6.940;2023-06-14T04:49:21;7.38;;;3.95;;
57395;SDS011;43222;52.912;6.940;2023-06-14T04:51:48;9.70;;;3.95;;
57395;SDS011;43222;52.912;6.940;2023-06-14T04:54:22;6.85;;;3.65;;
57395;SDS011;43222;52.912;6.940;2023-06-14T04:56:49;11.02;;;4.20;;
57395;SDS011;43222;52.912;6.940;2023-06-14T04:59:16;14.85;;;4.32;;
57395;SDS011;43222;52.912;6.940;2023-06-14T05:01:42;7.50;;;3.80;;
57395;SDS011;43222;52.912;6.940;2023-06-14T05:04:13;11.48;;;3.90;;
57395;SDS011;43222;52.912;6.940;2023-06-14T05:06:40;9.95;;;3.90;;
57395;SDS011;43222;52.912;6.940;2023-06-14T05:09:07;8.32;;;3.63;;
57395;SDS011;43222;52.912;6.940;2023-06-14T05:11:33;11.80;;;4.45;;
57395;SDS011;43222;52.912;6.940;2023-06-14T05:13:59;8.85;;;4.13;;
57395;SDS011;43222;52.912;6.940;2023-06-14T05:16:25;11.65;;;4.07;;
57395;SDS011;43222;52.912;6.940;2023-06-14T05:18:52;12.05;;;3.75;;
57395;SDS011;43222;52.912;6.940;2023-06-14T05:21:18;10.32;;;3.90;;
57395;SDS011;43222;52.912;6.940;2023-06-14T05:23:44;7.05;;;3.70;;
57395;SDS011;43222;52.912;6.940;2023-06-14T05:26:11;7.18;;;3.85;;
57395;SDS011;43222;52.912;6.940;2023-06-14T05:28:37;8.45;;;3.85;;
57395;SDS011;43222;52.912;6.940;2023-06-14T05:31:06;10.77;;;3.40;;
57395;SDS011;43222;52.912;6.940;2023-06-14T05:33:32;7.50;;;3.40;;
57395;SDS011;43222;52.912;6.940;2023-06-14T05:35:58;9.93;;;3.50;;
57395;SDS011;43222;52.912;6.940;2023-06-14T05:38:24;6.85;;;3.40;;
57395;SDS011;43222;52.912;6.940;2023-06-14T05:40:50;8.88;;;3.30;;
57395;SDS011;43222;52.912;6.940;2023-06-14T05:43:17;7.68;;;3.60;;
57395;SDS011;43222;52.912;6.940;2023-06-14T05:45:43;11.27;;;3.42;;
57395;SDS011;43222;52.912;6.940;2023-06-14T05:48:12;7.95;;;3.22;;
57395;SDS011;43222;52.912;6.940;2023-06-14T05:50:38;7.32;;;3.10;;
57395;SDS011;43222;52.912;6.940;2023-06-14T05:53:04;6.78;;;3.47;;
57395;SDS011;43222;52.912;6.940;2023-06-14T05:55:30;7.28;;;2.97;;
57395;SDS011;43222;52.912;6.940;2023-06-14T05:57:56;9.00;;;3.25;;
57395;SDS011;43222;52.912;6.940;2023-06-14T06:00:30;7.32;;;3.28;;
57395;SDS011;43222;52.912;6.940;2023-06-14T06:02:56;7.97;;;3.30;;
57395;SDS011;43222;52.912;6.940;2023-06-14T06:05:25;6.93;;;2.97;;
57395;SDS011;43222;52.912;6.940;2023-06-14T06:07:51;7.22;;;3.08;;
57395;SDS011;43222;52.912;6.940;2023-06-14T06:10:17;9.55;;;3.25;;
57395;SDS011;43222;52.912;6.940;2023-06-14T06:12:44;7.88;;;2.90;;
57395;SDS011;43222;52.912;6.940;2023-06-14T06:15:12;6.97;;;3.30;;
57395;SDS011;43222;52.912;6.940;2023-06-14T06:17:39;8.25;;;2.80;;
57395;SDS011;43222;52.912;6.940;2023-06-14T06:20:08;26.85;;;3.78;;
57395;SDS011;43222;52.912;6.940;2023-06-14T06:22:34;14.95;;;3.08;;
57395;SDS011;43222;52.912;6.940;2023-06-14T06:25:03;8.43;;;3.20;;
57395;SDS011;43222;52.912;6.940;2023-06-14T06:27:31;6.05;;;2.75;;
57395;SDS011;43222;52.912;6.940;2023-06-14T06:29:57;8.35;;;2.95;;
57395;SDS011;43222;52.912;6.940;2023-06-14T06:32:23;7.30;;;2.88;;
57395;SDS011;43222;52.912;6.940;2023-06-14T06:34:49;6.65;;;2.90;;
57395;SDS011;43222;52.912;6.940;2023-06-14T06:37:16;6.07;;;2.67;;
57395;SDS011;43222;52.912;6.940;2023-06-14T06:39:42;8.07;;;2.90;;
57395;SDS011;43222;52.912;6.940;2023-06-14T06:42:08;8.40;;;2.70;;
57395;SDS011;43222;52.912;6.940;2023-06-14T06:44:35;8.00;;;2.60;;
57395;SDS011;43222;52.912;6.940;2023-06-14T06:47:02;8.45;;;2.80;;
57395;SDS011;43222;52.912;6.940;2023-06-14T06:49:28;7.30;;;2.90;;
57395;SDS011;43222;52.912;6.940;2023-06-14T06:52:06;6.40;;;2.75;;
57395;SDS011;43222;52.912;6.940;2023-06-14T06:54:33;9.30;;;2.55;;
57395;SDS011;43222;52.912;6.940;2023-06-14T06:57:05;7.53;;;2.80;;
57395;SDS011;43222;52.912;6.940;2023-06-14T06:59:31;6.18;;;2.70;;
57395;SDS011;43222;52.912;6.940;2023-06-14T07:01:58;9.00;;;2.45;;
57395;SDS011;43222;52.912;6.940;2023-06-14T07:04:24;9.85;;;2.40;;
57395;SDS011;43222;52.912;6.940;2023-06-14T07:06:50;9.75;;;2.47;;
57395;SDS011;43222;52.912;6.940;2023-06-14T07:09:16;8.50;;;2.75;;
57395;SDS011;43222;52.912;6.940;2023-06-14T07:11:47;7.47;;;2.25;;
57395;SDS011;43222;52.912;6.940;2023-06-14T07:14:13;6.22;;;2.30;;
57395;SDS011;43222;52.912;6.940;2023-06-14T07:16:42;6.70;;;2.55;;
57395;SDS011;43222;52.912;6.940;2023-06-14T07:19:08;7.78;;;2.75;;
57395;SDS011;43222;52.912;6.940;2023-06-14T07:21:35;6.80;;;2.38;;
57395;SDS011;43222;52.912;6.940;2023-06-14T07:24:04;11.27;;;2.58;;
57395;SDS011;43222;52.912;6.940;2023-06-14T07:26:31;8.32;;;2.60;;
57395;SDS011;43222;52.912;6.940;2023-06-14T07:28:57;5.57;;;2.10;;
57395;SDS011;43222;52.912;6.940;2023-06-14T07:31:23;6.40;;;2.50;;
57395;SDS011;43222;52.912;6.940;2023-06-14T07:33:49;7.47;;;2.47;;
57395;SDS011;43222;52.912;6.940;2023-06-14T07:36:17;8.52;;;2.50;;
57395;SDS011;43222;52.912;6.940;2023-06-14T07:38:43;6.90;;;2.20;;
57395;SDS011;43222;52.912;6.940;2023-06-14T07:41:10;6.45;;;2.25;;
57395;SDS011;43222;52.912;6.940;2023-06-14T07:43:38;4.80;;;2.28;;
57395;SDS011;43222;52.912;6.940;2023-06-14T07:46:04;6.28;;;2.35;;
57395;SDS011;43222;52.912;6.940;2023-06-14T07:48:30;6.05;;;2.10;;
57395;SDS011;43222;52.912;6.940;2023-06-14T07:50:57;5.97;;;1.98;;
57395;SDS011;43222;52.912;6.940;2023-06-14T07:53:23;7.32;;;2.30;;
57395;SDS011;43222;52.912;6.940;2023-06-14T07:55:49;4.80;;;1.92;;
57395;SDS011;43222;52.912;6.940;2023-06-14T07:58:16;4.90;;;2.20;;
57395;SDS011;43222;52.912;6.940;2023-06-14T08:00:42;4.32;;;2.00;;
57395;SDS011;43222;52.912;6.940;2023-06-14T08:03:09;6.65;;;2.20;;
57395;SDS011;43222;52.912;6.940;2023-06-14T08:05:36;6.35;;;2.25;;
57395;SDS011;43222;52.912;6.940;2023-06-14T08:08:02;6.18;;;2.00;;
57395;SDS011;43222;52.912;6.940;2023-06-14T08:10:28;6.63;;;2.00;;
57395;SDS011;43222;52.912;6.940;2023-06-14T08:12:54;6.65;;;2.17;;
57395;SDS011;43222;52.912;6.940;2023-06-14T08:15:22;7.10;;;2.30;;
57395;SDS011;43222;52.912;6.940;2023-06-14T08:17:48;7.30;;;2.10;;
57395;SDS011;43222;52.912;6.940;2023-06-14T08:20:15;4.15;;;1.90;;
57395;SDS011;43222;52.912;6.940;2023-06-14T08:22:42;6.95;;;2.15;;
57395;SDS011;43222;52.912;6.940;2023-06-14T08:25:08;8.20;;;2.13;;
57395;SDS011;43222;52.912;6.940;2023-06-14T08:27:34;9.80;;;2.22;;
57395;SDS011;43222;52.912;6.940;2023-06-14T08:30:01;8.40;;;2.13;;
57395;SDS011;43222;52.912;6.940;2023-06-14T08:32:28;5.97;;;2.10;;
57395;SDS011;43222;52.912;6.940;2023-06-14T08:34:54;4.10;;;1.95;;
57395;SDS011;43222;52.912;6.940;2023-06-14T08:37:20;4.43;;;1.80;;
57395;SDS011;43222;52.912;6.940;2023-06-14T08:39:46;7.22;;;2.25;;
57395;SDS011;43222;52.912;6.940;2023-06-14T08:42:12;4.85;;;2.30;;
57395;SDS011;43222;52.912;6.940;2023-06-14T08:44:39;5.78;;;2.13;;
57395;SDS011;43222;52.912;6.940;2023-06-14T08:47:06;6.10;;;2.03;;
57395;SDS011;43222;52.912;6.940;2023-06-14T08:49:33;6.70;;;2.30;;
57395;SDS011;43222;52.912;6.940;2023-06-14T08:52:01;5.53;;;2.00;;
57395;SDS011;43222;52.912;6.940;2023-06-14T08:54:29;5.45;;;2.10;;
57395;SDS011;43222;52.912;6.940;2023-06-14T08:56:59;7.57;;;2.28;;
57395;SDS011;43222;52.912;6.940;2023-06-14T08:59:26;8.38;;;2.40;;
57395;SDS011;43222;52.912;6.940;2023-06-14T09:01:52;6.68;;;2.00;;
57395;SDS011;43222;52.912;6.940;2023-06-14T09:04:20;5.95;;;1.90;;
57395;SDS011;43222;52.912;6.940;2023-06-14T09:06:48;7.38;;;2.00;;
57395;SDS011;43222;52.912;6.940;2023-06-14T09:09:20;7.72;;;2.30;;
57395;SDS011;43222;52.912;6.940;2023-06-14T09:11:50;5.33;;;1.70;;
57395;SDS011;43222;52.912;6.940;2023-06-14T09:14:17;5.82;;;2.13;;
57395;SDS011;43222;52.912;6.940;2023-06-14T09:16:44;5.07;;;1.90;;
57395;SDS011;43222;52.912;6.940;2023-06-14T09:22:08;7.47;;;1.90;;
57395;SDS011;43222;52.912;6.940;2023-06-14T09:24:36;5.60;;;1.42;;
57395;SDS011;43222;52.912;6.940;2023-06-14T09:27:03;4.68;;;1.52;;
57395;SDS011;43222;52.912;6.940;2023-06-14T09:29:29;5.05;;;1.63;;
57395;SDS011;43222;52.912;6.940;2023-06-14T09:31:59;3.55;;;1.27;;
57395;SDS011;43222;52.912;6.940;2023-06-14T09:34:26;7.25;;;1.95;;
57395;SDS011;43222;52.912;6.940;2023-06-14T09:36:54;5.78;;;1.83;;
57395;SDS011;43222;52.912;6.940;2023-06-14T09:39:20;3.78;;;1.45;;
57395;SDS011;43222;52.912;6.940;2023-06-14T09:41:49;6.53;;;1.50;;
57395;SDS011;43222;52.912;6.940;2023-06-14T09:44:15;3.97;;;1.60;;
57395;SDS011;43222;52.912;6.940;2023-06-14T09:46:43;6.75;;;1.33;;
57395;SDS011;43222;52.912;6.940;2023-06-14T09:49:09;11.65;;;1.73;;
57395;SDS011;43222;52.912;6.940;2023-06-14T09:51:36;5.88;;;1.30;;
57395;SDS011;43222;52.912;6.940;2023-06-14T09:54:08;3.70;;;1.40;;
57395;SDS011;43222;52.912;6.940;2023-06-14T09:56:38;4.63;;;1.50;;
57395;SDS011;43222;52.912;6.940;2023-06-14T09:59:09;8.30;;;1.92;;
57395;SDS011;43222;52.912;6.940;2023-06-14T10:01:36;3.80;;;1.33;;
57395;SDS011;43222;52.912;6.940;2023-06-14T10:04:05;4.57;;;1.50;;
57395;SDS011;43222;52.912;6.940;2023-06-14T10:06:31;5.88;;;1.58;;
57395;SDS011;43222;52.912;6.940;2023-06-14T10:08:58;5.78;;;1.60;;
57395;SDS011;43222;52.912;6.940;2023-06-14T10:11:25;7.82;;;1.60;;
57395;SDS011;43222;52.912;6.940;2023-06-14T10:13:51;4.75;;;1.42;;
57395;SDS011;43222;52.912;6.940;2023-06-14T10:21:33;5.35;;;1.35;;
57395;SDS011;43222;52.912;6.940;2023-06-14T10:24:04;8.52;;;1.73;;
57395;SDS011;43222;52.912;6.940;2023-06-14T10:26:31;4.30;;;1.30;;
57395;SDS011;43222;52.912;6.940;2023-06-14T10:29:08;6.47;;;1.73;;
57395;SDS011;43222;52.912;6.940;2023-06-14T10:31:41;8.18;;;1.70;;
57395;SDS011;43222;52.912;6.940;2023-06-14T10:34:08;6.05;;;1.52;;
57395;SDS011;43222;52.912;6.940;2023-06-14T10:36:34;4.93;;;1.55;;
57395;SDS011;43222;52.912;6.940;2023-06-14T10:41:35;3.70;;;1.65;;
57395;SDS011;43222;52.912;6.940;2023-06-14T10:44:30;5.85;;;1.50;;
57395;SDS011;43222;52.912;6.940;2023-06-14T10:47:00;6.63;;;1.58;;
57395;SDS011;43222;52.912;6.940;2023-06-14T10:52:26;5.03;;;1.60;;
57395;SDS011;43222;52.912;6.940;2023-06-14T10:57:25;13.38;;;1.75;;
57395;SDS011;43222;52.912;6.940;2023-06-14T10:59:51;5.00;;;1.60;;
57395;SDS011;43222;52.912;6.940;2023-06-14T11:02:39;4.10;;;1.40;;
57395;SDS011;43222;52.912;6.940;2023-06-14T11:05:14;5.38;;;1.58;;
57395;SDS011;43222;52.912;6.940;2023-06-14T11:10:43;5.07;;;1.65;;
57395;SDS011;43222;52.912;6.940;2023-06-14T11:13:12;7.43;;;1.83;;
57395;SDS011;43222;52.912;6.940;2023-06-14T11:15:43;3.97;;;1.60;;
57395;SDS011;43222;52.912;6.940;2023-06-14T11:18:10;7.90;;;1.70;;
57395;SDS011;43222;52.912;6.940;2023-06-14T11:20:39;6.38;;;1.75;;
57395;SDS011;43222;52.912;6.940;2023-06-14T11:23:05;5.45;;;1.60;;
57395;SDS011;43222;52.912;6.940;2023-06-14T11:25:31;4.53;;;1.70;;
57395;SDS011;43222;52.912;6.940;2023-06-14T11:27:58;6.95;;;1.60;;
57395;SDS011;43222;52.912;6.940;2023-06-14T11:30:24;3.70;;;1.60;;
57395;SDS011;43222;52.912;6.940;2023-06-14T11:32:51;7.10;;;1.70;;
57395;SDS011;43222;52.912;6.940;2023-06-14T11:35:19;4.43;;;1.48;;
57395;SDS011;43222;52.912;6.940;2023-06-14T11:37:45;4.30;;;1.70;;
57395;SDS011;43222;52.912;6.940;2023-06-14T11:40:12;4.32;;;1.50;;
57395;SDS011;43222;52.912;6.940;2023-06-14T11:42:39;4.13;;;1.40;;
57395;SDS011;43222;52.912;6.940;2023-06-14T11:45:09;5.63;;;1.33;;
57395;SDS011;43222;52.912;6.940;2023-06-14T11:47:35;4.22;;;1.42;;
57395;SDS011;43222;52.912;6.940;2023-06-14T11:50:02;4.50;;;1.55;;
57395;SDS011;43222;52.912;6.940;2023-06-14T11:52:29;5.00;;;1.45;;
57395;SDS011;43222;52.912;6.940;2023-06-14T11:54:55;5.63;;;1.40;;
57395;SDS011;43222;52.912;6.940;2023-06-14T11:57:22;8.48;;;1.55;;
57395;SDS011;43222;52.912;6.940;2023-06-14T11:59:48;7.35;;;1.30;;
57395;SDS011;43222;52.912;6.940;2023-06-14T12:02:17;7.22;;;1.80;;
57395;SDS011;43222;52.912;6.940;2023-06-14T12:04:46;4.43;;;1.70;;
57395;SDS011;43222;52.912;6.940;2023-06-14T12:07:14;4.80;;;1.60;;
57395;SDS011;43222;52.912;6.940;2023-06-14T12:09:43;5.93;;;1.90;;
57395;SDS011;43222;52.912;6.940;2023-06-14T12:12:27;3.53;;;1.65;;
57395;SDS011;43222;52.912;6.940;2023-06-14T12:14:56;6.03;;;1.52;;
57395;SDS011;43222;52.912;6.940;2023-06-14T12:17:22;10.85;;;1.70;;
57395;SDS011;43222;52.912;6.940;2023-06-14T12:19:49;5.78;;;1.63;;
57395;SDS011;43222;52.912;6.940;2023-06-14T12:22:17;6.32;;;1.80;;
57395;SDS011;43222;52.912;6.940;2023-06-14T12:24:43;4.15;;;1.50;;
57395;SDS011;43222;52.912;6.940;2023-06-14T12:27:10;5.82;;;1.70;;
57395;SDS011;43222;52.912;6.940;2023-06-14T12:29:40;3.80;;;1.50;;
57395;SDS011;43222;52.912;6.940;2023-06-14T12:32:08;5.32;;;1.65;;
57395;SDS011;43222;52.912;6.940;2023-06-14T12:34:34;4.22;;;1.50;;
57395;SDS011;43222;52.912;6.940;2023-06-14T12:37:01;6.25;;;1.70;;
57395;SDS011;43222;52.912;6.940;2023-06-14T12:39:29;5.13;;;1.40;;
57395;SDS011;43222;52.912;6.940;2023-06-14T12:41:56;7.68;;;1.65;;
57395;SDS011;43222;52.912;6.940;2023-06-14T12:44:22;6.40;;;1.50;;
57395;SDS011;43222;52.912;6.940;2023-06-14T12:46:48;5.78;;;1.55;;
57395;SDS011;43222;52.912;6.940;2023-06-14T12:49:16;5.82;;;1.52;;
57395;SDS011;43222;52.912;6.940;2023-06-14T12:51:42;4.10;;;1.30;;
57395;SDS011;43222;52.912;6.940;2023-06-14T12:54:08;4.22;;;1.70;;
57395;SDS011;43222;52.912;6.940;2023-06-14T12:56:34;5.50;;;1.60;;
57395;SDS011;43222;52.912;6.940;2023-06-14T12:59:01;6.32;;;1.70;;
57395;SDS011;43222;52.912;6.940;2023-06-14T13:01:27;5.10;;;1.65;;
57395;SDS011;43222;52.912;6.940;2023-06-14T13:03:53;4.65;;;1.48;;
57395;SDS011;43222;52.912;6.940;2023-06-14T13:06:22;6.35;;;1.70;;
57395;SDS011;43222;52.912;6.940;2023-06-14T13:08:49;6.33;;;1.67;;
57395;SDS011;43222;52.912;6.940;2023-06-14T13:11:15;5.80;;;1.80;;
57395;SDS011;43222;52.912;6.940;2023-06-14T13:13:41;4.65;;;1.67;;
57395;SDS011;43222;52.912;6.940;2023-06-14T13:16:07;4.35;;;1.75;;
57395;SDS011;43222;52.912;6.940;2023-06-14T13:18:33;3.78;;;1.52;;
57395;SDS011;43222;52.912;6.940;2023-06-14T13:20:59;7.75;;;2.00;;
57395;SDS011;43222;52.912;6.940;2023-06-14T13:23:26;5.97;;;1.77;;
57395;SDS011;43222;52.912;6.940;2023-06-14T13:25:52;4.32;;;1.90;;
57395;SDS011;43222;52.912;6.940;2023-06-14T13:28:18;3.47;;;1.60;;
57395;SDS011;43222;52.912;6.940;2023-06-14T13:30:46;8.48;;;1.90;;
57395;SDS011;43222;52.912;6.940;2023-06-14T13:33:12;4.25;;;1.70;;
57395;SDS011;43222;52.912;6.940;2023-06-14T13:35:39;4.60;;;1.65;;
57395;SDS011;43222;52.912;6.940;2023-06-14T13:38:05;4.85;;;1.75;;
57395;SDS011;43222;52.912;6.940;2023-06-14T13:40:31;9.02;;;1.80;;
57395;SDS011;43222;52.912;6.940;2023-06-14T13:42:57;4.13;;;1.58;;
57395;SDS011;43222;52.912;6.940;2023-06-14T13:45:23;4.38;;;1.48;;
57395;SDS011;43222;52.912;6.940;2023-06-14T13:47:49;4.70;;;1.50;;
57395;SDS011;43222;52.912;6.940;2023-06-14T13:50:16;5.97;;;1.65;;
57395;SDS011;43222;52.912;6.940;2023-06-14T13:52:42;12.70;;;2.08;;
57395;SDS011;43222;52.912;6.940;2023-06-14T13:55:09;3.72;;;1.58;;
57395;SDS011;43222;52.912;6.940;2023-06-14T13:57:35;3.65;;;1.35;;
57395;SDS011;43222;52.912;6.940;2023-06-14T14:00:01;11.85;;;1.67;;
57395;SDS011;43222;52.912;6.940;2023-06-14T14:02:28;7.10;;;1.50;;
57395;SDS011;43222;52.912;6.940;2023-06-14T14:04:55;4.13;;;1.80;;
57395;SDS011;43222;52.912;6.940;2023-06-14T14:07:22;5.57;;;1.48;;
57395;SDS011;43222;52.912;6.940;2023-06-14T14:09:49;5.22;;;1.70;;
57395;SDS011;43222;52.912;6.940;2023-06-14T14:12:15;10.13;;;1.65;;
57395;SDS011;43222;52.912;6.940;2023-06-14T14:14:41;5.10;;;1.55;;
57395;SDS011;43222;52.912;6.940;2023-06-14T14:17:07;3.65;;;1.50;;
57395;SDS011;43222;52.912;6.940;2023-06-14T14:19:33;5.25;;;1.52;;
57395;SDS011;43222;52.912;6.940;2023-06-14T14:21:59;8.27;;;1.88;;
57395;SDS011;43222;52.912;6.940;2023-06-14T14:24:26;5.38;;;1.60;;
57395;SDS011;43222;52.912;6.940;2023-06-14T14:26:52;4.95;;;1.92;;
57395;SDS011;43222;52.912;6.940;2023-06-14T14:29:18;6.68;;;2.00;;
57395;SDS011;43222;52.912;6.940;2023-06-14T14:31:45;7.55;;;1.70;;
57395;SDS011;43222;52.912;6.940;2023-06-14T14:34:11;5.82;;;1.42;;
57395;SDS011;43222;52.912;6.940;2023-06-14T14:36:37;5.60;;;1.70;;
57395;SDS011;43222;52.912;6.940;2023-06-14T14:39:07;5.13;;;1.70;;
57395;SDS011;43222;52.912;6.940;2023-06-14T14:41:33;4.20;;;1.80;;
57395;SDS011;43222;52.912;6.940;2023-06-14T14:43:59;6.18;;;1.70;;
57395;SDS011;43222;52.912;6.940;2023-06-14T14:46:26;4.03;;;1.80;;
57395;SDS011;43222;52.912;6.940;2023-06-14T14:48:53;4.45;;;1.70;;
57395;SDS011;43222;52.912;6.940;2023-06-14T14:51:19;3.75;;;1.63;;
57395;SDS011;43222;52.912;6.940;2023-06-14T14:53:45;4.85;;;1.80;;
57395;SDS011;43222;52.912;6.940;2023-06-14T14:56:11;4.28;;;1.67;;
57395;SDS011;43222;52.912;6.940;2023-06-14T14:58:37;4.25;;;1.65;;
57395;SDS011;43222;52.912;6.940;2023-06-14T15:01:03;4.45;;;1.90;;
57395;SDS011;43222;52.912;6.940;2023-06-14T15:03:30;6.28;;;1.90;;
57395;SDS011;43222;52.912;6.940;2023-06-14T15:05:57;4.25;;;1.80;;
57395;SDS011;43222;52.912;6.940;2023-06-14T15:08:23;3.85;;;1.90;;
57395;SDS011;43222;52.912;6.940;2023-06-14T15:10:49;7.32;;;2.22;;